sensor_id;sensor_type;location;lat;lon;timestamp;pressure;altitude;pressure_sealevel;temperature;humidity
50696;BME280;36665;51.786;21.594;2023-07-08T00:03:00;96317.41;;;11.56;82.18
50696;BME280;36665;51.786;21.594;2023-07-08T00:11:25;96271.85;;;11.45;82.30
50696;BME280;36665;51.786;21.594;2023-07-08T00:19:48;96249.36;;;11.39;82.20
50696;BME280;36665;51.786;21.594;2023-07-08T00:28:14;96178.77;;;11.23;82.22
50696;BME280;36665;51.786;21.594;2023-07-08T00:36:37;96094.52;;;11.02;82.27
50696;BME280;36665;51.786;21.594;2023-07-08T00:45:01;96013.70;;;10.84;82.31
50696;BME280;36665;51.786;21.594;2023-07-08T00:53:30;95981.42;;;10.77;82.29
50696;BME280;36665;51.786;21.594;2023-07-08T01:01:55;95963.27;;;10.72;82.24
50696;BME280;36665;51.786;21.594;2023-07-08T01:10:28;95956.23;;;10.71;82.28
50696;BME280;36665;51.786;21.594;2023-07-08T01:18:54;95951.16;;;10.69;82.23
50696;BME280;36665;51.786;21.594;2023-07-08T01:27:19;95911.59;;;10.59;82.14
50696;BME280;36665;51.786;21.594;2023-07-08T01:35:42;95842.14;;;10.43;82.20
50696;BME280;36665;51.786;21.594;2023-07-08T01:44:05;95805.41;;;10.34;82.26
50696;BME280;36665;51.786;21.594;2023-07-08T01:52:41;95799.10;;;10.33;82.42
50696;BME280;36665;51.786;21.594;2023-07-08T02:01:06;95821.25;;;10.39;82.46
50696;BME280;36665;51.786;21.594;2023-07-08T02:09:29;95861.61;;;10.49;82.35
50696;BME280;36665;51.786;21.594;2023-07-08T02:17:52;95911.80;;;10.61;82.43
50696;BME280;36665;51.786;21.594;2023-07-08T02:26:15;95911.81;;;10.61;82.55
50696;BME280;36665;51.786;21.594;2023-07-08T02:34:38;95878.74;;;10.53;82.54
50696;BME280;36665;51.786;21.594;2023-07-08T02:43:02;95820.64;;;10.39;82.66
50696;BME280;36665;51.786;21.594;2023-07-08T02:51:26;95771.59;;;10.27;82.51
50696;BME280;36665;51.786;21.594;2023-07-08T02:59:49;95758.56;;;10.25;82.35
50696;BME280;36665;51.786;21.594;2023-07-08T03:08:13;95758.40;;;10.25;82.49
50696;BME280;36665;51.786;21.594;2023-07-08T03:16:36;95756.99;;;10.25;82.49
50696;BME280;36665;51.786;21.594;2023-07-08T03:25:00;95854.95;;;10.50;82.38
50696;BME280;36665;51.786;21.594;2023-07-08T03:33:25;96071.23;;;11.02;82.61
50696;BME280;36665;51.786;21.594;2023-07-08T03:41:49;96308.64;;;11.60;82.95
50696;BME280;36665;51.786;21.594;2023-07-08T03:50:22;96503.55;;;12.07;83.00
50696;BME280;36665;51.786;21.594;2023-07-08T03:58:46;96666.54;;;12.46;83.27
50696;BME280;36665;51.786;21.594;2023-07-08T04:07:09;96906.33;;;13.04;83.47
50696;BME280;36665;51.786;21.594;2023-07-08T04:15:32;97313.75;;;14.00;83.72
50696;BME280;36665;51.786;21.594;2023-07-08T04:23:55;97703.54;;;14.90;84.01
50696;BME280;36665;51.786;21.594;2023-07-08T04:32:18;98094.73;;;15.79;84.30
50696;BME280;36665;51.786;21.594;2023-07-08T04:40:41;98500.06;;;16.72;84.63
50696;BME280;36665;51.786;21.594;2023-07-08T04:49:06;98947.02;;;17.71;85.08
50696;BME280;36665;51.786;21.594;2023-07-08T04:57:29;99319.52;;;18.53;85.56
50696;BME280;36665;51.786;21.594;2023-07-08T05:05:52;99731.98;;;19.43;85.73
50696;BME280;36665;51.786;21.594;2023-07-08T05:14:15;100109.06;;;20.23;86.05
50696;BME280;36665;51.786;21.594;2023-07-08T05:22:38;100433.75;;;20.92;86.13
50696;BME280;36665;51.786;21.594;2023-07-08T05:31:01;100702.81;;;21.49;86.43
50696;BME280;36665;51.786;21.594;2023-07-08T05:39:25;100991.75;;;22.10;86.51
50696;BME280;36665;51.786;21.594;2023-07-08T05:47:48;101265.73;;;22.66;86.65
50696;BME280;36665;51.786;21.594;2023-07-08T05:56:12;101499.34;;;23.14;86.88
50696;BME280;36665;51.786;21.594;2023-07-08T06:04:35;101665.12;;;23.47;86.83
50696;BME280;36665;51.786;21.594;2023-07-08T06:12:57;101828.61;;;23.80;87.11
50696;BME280;36665;51.786;21.594;2023-07-08T06:21:20;102150.85;;;24.46;87.13
50696;BME280;36665;51.786;21.594;2023-07-08T06:29:44;102521.89;;;25.19;87.33
50696;BME280;36665;51.786;21.594;2023-07-08T06:38:09;102829.13;;;25.78;87.48
50696;BME280;36665;51.786;21.594;2023-07-08T06:46:33;103143.66;;;26.40;87.76
50696;BME280;36665;51.786;21.594;2023-07-08T06:54:56;103395.16;;;26.88;87.92
50696;BME280;36665;51.786;21.594;2023-07-08T07:03:19;103617.44;;;27.31;87.85
50696;BME280;36665;51.786;21.594;2023-07-08T07:11:42;103832.67;;;27.73;87.98
50696;BME280;36665;51.786;21.594;2023-07-08T07:20:05;103939.23;;;27.93;87.93
50696;BME280;36665;51.786;21.594;2023-07-08T07:28:29;104084.29;;;28.21;87.91
50696;BME280;36665;51.786;21.594;2023-07-08T07:36:52;104294.58;;;28.62;87.95
50696;BME280;36665;51.786;21.594;2023-07-08T07:45:16;104417.96;;;28.86;87.86
50696;BME280;36665;51.786;21.594;2023-07-08T07:53:39;104575.52;;;29.15;87.92
50696;BME280;36665;51.786;21.594;2023-07-08T08:02:02;104684.21;;;29.36;87.81
50696;BME280;36665;51.786;21.594;2023-07-08T08:10:26;104798.34;;;29.57;87.84
50696;BME280;36665;51.786;21.594;2023-07-08T08:18:49;104886.73;;;29.75;87.80
50696;BME280;36665;51.786;21.594;2023-07-08T08:27:12;104872.36;;;29.73;87.64
50696;BME280;36665;51.786;21.594;2023-07-08T08:35:35;104924.63;;;29.85;87.47
50696;BME280;36665;51.786;21.594;2023-07-08T08:43:58;104924.44;;;29.85;87.50
50696;BME280;36665;51.786;21.594;2023-07-08T08:52:22;104917.61;;;29.84;87.35
50696;BME280;36665;51.786;21.594;2023-07-08T09:00:56;104949.52;;;29.91;87.39
50696;BME280;36665;51.786;21.594;2023-07-08T09:09:25;104984.63;;;29.97;87.34
50696;BME280;36665;51.786;21.594;2023-07-08T09:17:57;105023.98;;;30.05;87.31
50696;BME280;36665;51.786;21.594;2023-07-08T09:26:24;104953.84;;;29.92;87.36
50696;BME280;36665;51.786;21.594;2023-07-08T09:34:53;105004.10;;;30.01;87.39
50696;BME280;36665;51.786;21.594;2023-07-08T09:51:49;105056.02;;;30.10;87.60
50696;BME280;36665;51.786;21.594;2023-07-08T10:00:15;105170.58;;;30.31;87.66
50696;BME280;36665;51.786;21.594;2023-07-08T10:08:42;105231.44;;;30.42;87.81
50696;BME280;36665;51.786;21.594;2023-07-08T10:17:05;105205.83;;;30.37;87.84
50696;BME280;36665;51.786;21.594;2023-07-08T10:25:37;105029.52;;;30.06;87.78
50696;BME280;36665;51.786;21.594;2023-07-08T10:51:41;104884.64;;;29.82;87.53
50696;BME280;36665;51.786;21.594;2023-07-08T11:00:24;104994.65;;;30.02;87.66
50696;BME280;36665;51.786;21.594;2023-07-08T11:08:55;105130.84;;;30.27;87.72
50696;BME280;36665;51.786;21.594;2023-07-08T11:17:43;105306.38;;;30.58;88.02
50696;BME280;36665;51.786;21.594;2023-07-08T11:26:17;105028.71;;;30.07;87.97
50696;BME280;36665;51.786;21.594;2023-07-08T11:34:43;104705.14;;;29.50;87.50
50696;BME280;36665;51.786;21.594;2023-07-08T11:43:07;104549.81;;;29.24;87.43
50696;BME280;36665;51.786;21.594;2023-07-08T11:51:34;104338.20;;;28.85;87.28
50696;BME280;36665;51.786;21.594;2023-07-08T12:08:41;104508.17;;;29.17;87.47
50696;BME280;36665;51.786;21.594;2023-07-08T12:17:10;104734.19;;;29.57;87.80
50696;BME280;36665;51.786;21.594;2023-07-08T12:25:34;104960.77;;;29.97;88.05
50696;BME280;36665;51.786;21.594;2023-07-08T12:33:58;105019.81;;;30.08;88.18
50696;BME280;36665;51.786;21.594;2023-07-08T12:42:22;104963.41;;;29.99;88.12
50696;BME280;36665;51.786;21.594;2023-07-08T12:50:45;104733.13;;;29.57;88.08
50696;BME280;36665;51.786;21.594;2023-07-08T12:59:13;104256.00;;;28.70;87.67
50696;BME280;36665;51.786;21.594;2023-07-08T13:07:40;104004.80;;;28.25;87.39
50696;BME280;36665;51.786;21.594;2023-07-08T13:16:04;104251.49;;;28.72;87.53
50696;BME280;36665;51.786;21.594;2023-07-08T13:24:30;104280.80;;;28.77;87.77
50696;BME280;36665;51.786;21.594;2023-07-08T13:32:56;104013.02;;;28.26;87.71
50696;BME280;36665;51.786;21.594;2023-07-08T13:41:21;103879.42;;;28.03;87.49
50696;BME280;36665;51.786;21.594;2023-07-08T13:49:45;104074.83;;;28.40;87.82
50696;BME280;36665;51.786;21.594;2023-07-08T13:58:16;103931.38;;;28.13;87.76
50696;BME280;36665;51.786;21.594;2023-07-08T14:06:40;103696.89;;;27.69;87.66
50696;BME280;36665;51.786;21.594;2023-07-08T14:15:03;103735.79;;;27.77;87.62
50696;BME280;36665;51.786;21.594;2023-07-08T14:23:26;103901.25;;;28.08;87.80
50696;BME280;36665;51.786;21.594;2023-07-08T14:31:49;103865.33;;;28.00;87.89
50696;BME280;36665;51.786;21.594;2023-07-08T14:40:21;103862.98;;;28.00;87.98
50696;BME280;36665;51.786;21.594;2023-07-08T14:48:45;104012.66;;;28.29;88.10
50696;BME280;36665;51.786;21.594;2023-07-08T14:57:10;104085.51;;;28.42;88.12
50696;BME280;36665;51.786;21.594;2023-07-08T15:05:41;104002.70;;;28.27;88.18
50696;BME280;36665;51.786;21.594;2023-07-08T15:14:11;103968.84;;;28.21;88.13
50696;BME280;36665;51.786;21.594;2023-07-08T15:22:35;104004.77;;;28.28;88.20
50696;BME280;36665;51.786;21.594;2023-07-08T15:31:01;104050.51;;;28.37;88.15
50696;BME280;36665;51.786;21.594;2023-07-08T15:39:26;103948.10;;;28.18;88.15
50696;BME280;36665;51.786;21.594;2023-07-08T15:47:49;103890.15;;;28.08;88.04
50696;BME280;36665;51.786;21.594;2023-07-08T15:56:14;103905.67;;;28.11;88.06
50696;BME280;36665;51.786;21.594;2023-07-08T16:04:37;103932.84;;;28.17;88.10
50696;BME280;36665;51.786;21.594;2023-07-08T16:13:01;103932.31;;;28.17;88.06
50696;BME280;36665;51.786;21.594;2023-07-08T16:21:27;103922.09;;;28.16;88.13
50696;BME280;36665;51.786;21.594;2023-07-08T16:29:50;103874.52;;;28.08;88.05
50696;BME280;36665;51.786;21.594;2023-07-08T16:38:13;103814.31;;;27.97;88.12
50696;BME280;36665;51.786;21.594;2023-07-08T16:46:37;103737.83;;;27.83;88.09
50696;BME280;36665;51.786;21.594;2023-07-08T16:55:00;103629.28;;;27.64;87.96
50696;BME280;36665;51.786;21.594;2023-07-08T17:03:23;103538.08;;;27.47;87.93
50696;BME280;36665;51.786;21.594;2023-07-08T17:11:46;103452.87;;;27.33;87.88
50696;BME280;36665;51.786;21.594;2023-07-08T17:20:16;103337.04;;;27.09;87.75
50696;BME280;36665;51.786;21.594;2023-07-08T17:28:39;103185.80;;;26.81;87.65
50696;BME280;36665;51.786;21.594;2023-07-08T17:37:02;103030.61;;;26.52;87.60
50696;BME280;36665;51.786;21.594;2023-07-08T17:45:33;102888.35;;;26.25;87.60
50696;BME280;36665;51.786;21.594;2023-07-08T17:53:57;102738.83;;;25.98;87.46
50696;BME280;36665;51.786;21.594;2023-07-08T18:02:20;102548.73;;;25.60;87.35
50696;BME280;36665;51.786;21.594;2023-07-08T18:10:43;102320.58;;;25.16;87.28
50696;BME280;36665;51.786;21.594;2023-07-08T18:19:07;102094.02;;;24.71;86.97
50696;BME280;36665;51.786;21.594;2023-07-08T18:27:30;101849.84;;;24.23;87.06
50696;BME280;36665;51.786;21.594;2023-07-08T18:35:53;101623.04;;;23.78;86.62
50696;BME280;36665;51.786;21.594;2023-07-08T18:44:31;101383.55;;;23.30;86.63
50696;BME280;36665;51.786;21.594;2023-07-08T18:52:55;101113.41;;;22.74;86.47
50696;BME280;36665;51.786;21.594;2023-07-08T19:01:20;100828.85;;;22.16;86.28
50696;BME280;36665;51.786;21.594;2023-07-08T19:09:47;100561.10;;;21.61;86.09
50696;BME280;36665;51.786;21.594;2023-07-08T19:18:10;100277.27;;;21.02;85.97
50696;BME280;36665;51.786;21.594;2023-07-08T19:26:33;100020.34;;;20.47;85.71
50696;BME280;36665;51.786;21.594;2023-07-08T19:34:56;99839.45;;;20.09;85.48
50696;BME280;36665;51.786;21.594;2023-07-08T19:43:20;99645.61;;;19.67;85.43
50696;BME280;36665;51.786;21.594;2023-07-08T19:51:44;99465.52;;;19.29;85.29
50696;BME280;36665;51.786;21.594;2023-07-08T20:00:28;99312.33;;;18.95;85.10
50696;BME280;36665;51.786;21.594;2023-07-08T20:08:54;99126.41;;;18.55;85.12
50696;BME280;36665;51.786;21.594;2023-07-08T20:17:21;98962.82;;;18.19;85.14
50696;BME280;36665;51.786;21.594;2023-07-08T20:25:44;98840.13;;;17.92;85.17
50696;BME280;36665;51.786;21.594;2023-07-08T20:34:11;98690.45;;;17.58;84.98
50696;BME280;36665;51.786;21.594;2023-07-08T20:42:36;98526.34;;;17.23;85.00
50696;BME280;36665;51.786;21.594;2023-07-08T20:50:59;98416.98;;;16.98;85.08
50696;BME280;36665;51.786;21.594;2023-07-08T20:59:26;98319.17;;;16.76;84.92
50696;BME280;36665;51.786;21.594;2023-07-08T21:07:54;98206.27;;;16.51;85.01
50696;BME280;36665;51.786;21.594;2023-07-08T21:16:20;98115.71;;;16.31;84.99
50696;BME280;36665;51.786;21.594;2023-07-08T21:24:44;98008.30;;;16.06;84.94
50696;BME280;36665;51.786;21.594;2023-07-08T21:33:07;97918.67;;;15.86;84.95
50696;BME280;36665;51.786;21.594;2023-07-08T21:41:31;97859.35;;;15.73;84.87
50696;BME280;36665;51.786;21.594;2023-07-08T21:49:54;97830.55;;;15.67;84.94
50696;BME280;36665;51.786;21.594;2023-07-08T21:58:17;97804.39;;;15.61;85.07
50696;BME280;36665;51.786;21.594;2023-07-08T22:06:40;97787.39;;;15.56;85.12
50696;BME280;36665;51.786;21.594;2023-07-08T22:15:04;97708.05;;;15.39;85.12
50696;BME280;36665;51.786;21.594;2023-07-08T22:23:29;97580.40;;;15.10;85.16
50696;BME280;36665;51.786;21.594;2023-07-08T22:31:52;97532.78;;;14.99;85.20
50696;BME280;36665;51.786;21.594;2023-07-08T22:40:17;97524.61;;;14.98;85.15
50696;BME280;36665;51.786;21.594;2023-07-08T22:48:40;97522.77;;;14.97;85.20
50696;BME280;36665;51.786;21.594;2023-07-08T22:57:03;97461.75;;;14.83;85.34
50696;BME280;36665;51.786;21.594;2023-07-08T23:05:28;97384.92;;;14.66;85.35
50696;BME280;36665;51.786;21.594;2023-07-08T23:13:51;97307.30;;;14.48;85.30
50696;BME280;36665;51.786;21.594;2023-07-08T23:22:19;97216.65;;;14.27;85.14
50696;BME280;36665;51.786;21.594;2023-07-08T23:30:42;97163.79;;;14.15;85.22
50696;BME280;36665;51.786;21.594;2023-07-08T23:39:45;97140.95;;;14.10;85.24
50696;BME280;36665;51.786;21.594;2023-07-08T23:48:00;97098.71;;;14.01;85.15
50696;BME280;36665;51.786;21.594;2023-07-08T23:56:28;97017.84;;;13.82;85.01
